Ship Status Report: callsign BATFR13

sailwx.info

Track history (hours):
 
Tides and Currents Weather Stations Pressure Air Temp Water Temp Dewpoint Dewpoint Depression Visibility Wind Speed Wind Dir Waves Ship Positions

Callsign BATFR13 (name unknown)

Last reported at 2016-Oct-01 00:00 UTC. Time now 2016-Oct-01 01:31 UTC.
Position N 43°42' W 024°42'.

Wind from 330 at 14 knots

Waves 2.0 meters (7 feet), 5 second period

Barometer 1021.3 mb
Air temperature 16.4 ° C
Visibility: greater than 10.8 NM

Date/timePositionNaut miles runAvg speedWind from/ knotsBaromVisibWave heightAir tempDewpointWater temp
2016-Oct-01 00:00N 43°42' W 024°42'1414.3 330 / 141021.310.8 2.016.4
2016-Sep-30 23:00N 43°48' W 024°24'1818.3 340 / 131021.8 16.4
2016-Sep-30 22:00N 43°54' W 024°00'1818.3 330 / 181021.9 16.4
2016-Sep-30 21:00N 44°00' W 023°36'1818.3 330 / 201021.710.8 0.516.4
2016-Sep-30 20:00N 44°06' W 023°12'1818.2 320 / 211021.8 16.4
2016-Sep-30 19:00N 44°12' W 022°48'1414.2 320 / 261021.3 16.5
2016-Sep-30 18:00N 44°18' W 022°30'2120.9 320 / 231021.1 5.4 3.016.2
2016-Sep-30 17:00N 44°30' W 022°06'1414.2 1020.7 15.7
2016-Sep-30 16:00N 44°36' W 021°48'1818.1 1020.5 16.0
2016-Sep-30 15:00N 44°42' W 021°24'1818.1 1020.210.8 2.016.9
2016-Sep-30 14:00N 44°48' W 021°00'1414.1 1021.0 15.0
2016-Sep-30 13:00N 44°54' W 020°42'1818.0 1020.8 16.4
2016-Sep-30 12:00N 45°00' W 020°18'1818.0 1020.7 16.2
2016-Sep-30 11:00N 45°06' W 019°54'1818.0 1021.1 14.7
2016-Sep-30 10:00N 45°12' W 019°30'1717.4 1021.4 15.9
2016-Sep-30 09:00N 45°24' W 019°12'1817.9 1021.210.8 1.515.9
2016-Sep-30 08:00N 45°30' W 018°48'1817.8 1020.8 15.9
2016-Sep-30 07:00N 45°36' W 018°24'1817.8 1020.5 15.9
2016-Sep-30 06:00N 45°42' W 018°00'1413.9 320 / 231020.4 14.9
2016-Sep-30 05:00N 45°48' W 017°42'1817.8 320 / 211020.3 15.5
2016-Sep-30 04:00N 45°54' W 017°18'1817.7 320 / 231020.5 15.0
2016-Sep-30 03:00N 46°00' W 016°54'1817.7 310 / 251020.110.8 2.014.0
2016-Sep-30 02:00N 46°06' W 016°30'2020.5 320 / 231020.8 15.4
2016-Sep-30 01:00N 46°18' W 016°06'1817.6 320 / 251020.8 15.5
2016-Sep-30 00:00N 46°24' W 015°42'1817.6 320 / 231021.210.8 2.015.7
2016-Sep-29 23:00N 46°30' W 015°18'1817.6 320 / 211021.3 15.7
2016-Sep-29 22:00N 46°36' W 014°54'1413.7 320 / 241021.1 16.0
2016-Sep-29 21:00N 46°42' W 014°36'1817.5 320 / 221020.9 16.2
2016-Sep-29 20:00N 46°48' W 014°12'2020.3 320 / 231020.9 15.4
2016-Sep-29 19:00N 47°00' W 013°48'1717.4 300 / 191020.7 16.0
2016-Sep-29 18:00N 47°06' W 013°24'3517.4 300 / 131021.3 5.4 2.015.2
2016-Sep-29 16:00N 47°18' W 012°36'1717.3 290 / 121021.5 16.7
2016-Sep-29 15:00N 47°24' W 012°12'1717.3 310 / 151021.8 5.4 2.016.7
2016-Sep-29 14:00N 47°30' W 011°48'1717.3 320 / 191022.3 16.7
2016-Sep-29 13:00N 47°36' W 011°24'2020.1 310 / 201022.5 16.9
2016-Sep-29 12:00N 47°48' W 011°00'1717.2 320 / 201022.310.8 3.016.7
2016-Sep-29 11:00N 47°54' W 010°36'1717.2 320 / 191022.7 16.7
2016-Sep-29 10:00N 48°00' W 010°12'1717.1 320 / 221022.8 16.9
2016-Sep-29 09:00N 48°06' W 009°48'1717.1 320 / 221022.4 16.9
2016-Sep-29 08:00N 48°12' W 009°24'3718.3 320 / 211022.0 16.4
2016-Sep-29 06:00N 48°30' W 008°36'1717.0 320 / 201020.9 5.4 2.016.0
2016-Sep-29 05:00N 48°36' W 008°12'3416.9 320 / 231020.1 15.4
2016-Sep-29 03:00N 48°48' W 007°24'1313.3 250 / 201020.2 5.4 2.016.9
2016-Sep-29 02:00N 48°54' W 007°06'3416.8 270 / 211021.2 16.9
2016-Sep-29 00:00N 49°06' W 006°18'1313.2 250 / 171022.510.8 2.016.9
2016-Sep-28 23:00N 49°12' W 006°00'1313.2 240 / 181023.2 16.9
2016-Sep-28 22:00N 49°18' W 005°42'1313.2 240 / 181023.8 16.7
2016-Sep-28 21:00N 49°24' W 005°24'2814.0 240 / 171024.4 16.4
2016-Sep-28 19:00N 49°30' W 004°42'1313.1 230 / 161024.9 15.5
2016-Sep-28 18:00N 49°36' W 004°24'1313.1 240 / 171025.2 2.2 2.015.5
2016-Sep-28 17:00N 49°42' W 004°06'1313.1 240 / 181025.6 15.7
2016-Sep-28 16:00N 49°48' W 003°48'1211.6 260 / 171026.4 15.9
2016-Sep-28 15:00N 49°48' W 003°30'1313.1 260 / 201026.7 16.2
2016-Sep-28 14:00N 49°54' W 003°12'1716.6 270 / 211027.2 16.5
2016-Sep-28 13:00N 50°00' W 002°48'1515.4 270 / 201027.8 16.4
2016-Sep-28 12:00N 50°00' W 002°24'1716.5 260 / 171027.910.8 2.016.4
2016-Sep-28 11:00N 50°06' W 002°00'1716.5 260 / 171027.4 16.4
2016-Sep-28 10:00N 50°00' W 001°36'1716.6 250 / 161027.8 16.7
2016-Sep-28 09:00N 49°54' W 001°12'1313.1 280 / 161027.8 16.5
2016-Sep-28 08:00N 49°48' W 000°54'10 9.8 270 / 161027.7 16.2
2016-Sep-28 07:00N 49°42' W 000°42'1313.1 270 / 141027.5 16.0
2016-Sep-28 06:00N 49°36' W 000°24'1716.7 270 / 121027.5 5.4 2.015.9
2016-Sep-28 05:00N 49°30' E 000°00'8 0.5 270 / 151027.8 16.0
2016-Sep-27 13:00N 49°30' E 000°12'17 8.3 220 / 91025.3 20.4
2016-Sep-27 11:00N 49°36' W 000°12'1312.6 230 / 211024.7 18.4
2016-Sep-27 10:00N 49°48' W 000°06'1716.7 210 / 201023.9 17.9
2016-Sep-27 09:00N 50°00' E 000°12'1414.3 220 / 191023.7 18.0
2016-Sep-27 08:00N 50°12' E 000°24'1414.2 230 / 201023.4 17.5
2016-Sep-27 07:00N 50°24' E 000°36'2814.2 220 / 161023.4 17.0
2016-Sep-27 05:00N 50°48' E 001°00'4515.1 210 / 151023.2 16.7
2016-Sep-27 02:00N 51°18' E 001°54'3812.7 210 / 151023.7 16.4
2016-Sep-26 23:00N 51°24' E 002°54'1918.7 200 / 71024.0 15.9
2016-Sep-26 22:00N 51°24' E 003°24'1111.2 200 / 41024.2 14.9
2016-Sep-26 21:00N 51°24' E 003°42'1111.2 160 / 71024.7 15.9
2016-Sep-26 20:00N 51°24' E 004°00'7 7.5 210 / 51024.3 15.7
2016-Sep-26 19:00N 51°24' E 004°12'7 0.5 210 / 31024.7 16.0
2016-Sep-26 06:00N 51°18' E 004°18'1312.7 230 / 111023.8 10.7
2016-Sep-26 05:00N 51°24' E 004°00'1111.2 220 / 101023.3 13.2
2016-Sep-26 04:00N 51°24' E 003°42'2713.4 230 / 141022.7 12.9
2016-Sep-26 02:00N 51°30' E 003°00'1414.1 300 / 161022.6 16.9
2016-Sep-26 01:00N 51°42' E 003°12'1312.6 300 / 141022.3 17.4
2016-Sep-26 00:00N 51°54' E 003°18'1312.6 290 / 151021.5 17.7
2016-Sep-25 23:00N 52°06' E 003°24'1212.0 290 / 171020.9 17.9
2016-Sep-25 22:00N 52°18' E 003°24'1312.5 280 / 171020.0 18.0
2016-Sep-25 21:00N 52°30' E 003°30'1312.5 280 / 201019.4 18.4
2016-Sep-25 20:00N 52°42' E 003°36'1616.2 280 / 221018.5 18.7
2016-Sep-25 19:00N 52°54' E 003°54'1212.4 280 / 201018.0 18.2
2016-Sep-25 18:00N 53°00' E 004°12'1414.0 280 / 211017.1 18.2
2016-Sep-25 17:00N 53°12' E 004°24'1414.0 280 / 271016.0 17.7
2016-Sep-25 16:00N 53°24' E 004°36'1918.6 290 / 271014.9 18.0
2016-Sep-25 15:00N 53°36' E 005°00'1918.8 240 / 221013.6 5.4 1.018.9
2016-Sep-25 14:00N 53°42' E 005°30'1918.7 240 / 201013.5 20.4
2016-Sep-25 13:00N 53°48' E 006°00'1918.7 160 / 121013.2 20.9
2016-Sep-25 12:00N 53°54' E 006°30'4321.4 150 / 161014.2 19.4
2016-Sep-25 10:00N 54°00' E 007°42'1817.6 150 / 171016.5 17.4
2016-Sep-25 09:00N 54°00' E 008°12'1918.6 140 / 171017.6 17.4
2016-Sep-25 08:00N 53°54' E 008°42'1414.1 140 / 121018.5 15.7
2016-Sep-25 07:00N 53°54' E 009°06'2311.5 120 / 111018.9 13.4
2016-Sep-25 05:00N 53°36' E 009°30'1212.3 140 / 81020.3 14.7
2016-Sep-25 04:00N 53°30' E 009°48'12 0.5 110 / 81021.0 13.5
2016-Sep-24 02:00N 53°36' E 009°30'1413.9 260 / 111024.7 11.9
2016-Sep-24 01:00N 53°48' E 009°18'2211.0 230 / 131024.1 12.4
2016-Sep-23 23:00N 53°54' E 008°42'1515.3 270 / 111024.3 15.9
2016-Sep-23 22:00N 54°00' E 008°18'1110.6 280 / 91024.5 16.4
2016-Sep-23 21:00N 54°00' E 008°00'9 9.3 280 / 91024.6 16.5
2016-Sep-23 20:00N 53°54' E 007°48'1110.6 280 / 111024.7 16.4
2016-Sep-23 19:00N 53°54' E 007°30'1414.1 280 / 101024.5 16.4
2016-Sep-23 18:00N 53°54' E 007°06'2211.0 270 / 101024.0 5.4 1.016.4
2016-Sep-23 16:00N 53°48' E 006°30'1212.2 280 / 131024.2 17.4
2016-Sep-23 15:00N 53°42' E 006°12'1110.7 290 / 131024.1 5.4 1.017.2
2016-Sep-23 14:00N 53°42' E 005°54'1212.2 280 / 131023.9 16.9
2016-Sep-23 13:00N 53°36' E 005°36'1212.3 290 / 131024.1 16.9
2016-Sep-23 12:00N 53°30' E 005°18'1110.7 290 / 131023.810.8 16.7
2016-Sep-23 11:00N 53°30' E 005°00'1212.3 300 / 121023.7 16.7
2016-Sep-23 10:00N 53°24' E 004°42'1312.5 320 / 111023.4 16.4
2016-Sep-23 09:00N 53°12' E 004°36'9 9.4 350 / 41023.2 18.0
2016-Sep-23 08:00N 53°06' E 004°24'2110.5 250 / 111022.8 17.7
2016-Sep-23 06:00N 52°48' E 004°06'1312.5 260 / 151022.1 5.4 1.017.4
2016-Sep-23 05:00N 52°36' E 004°00'1312.5 280 / 131021.1 17.5
2016-Sep-23 04:00N 52°24' E 003°54'6 6.0 300 / 121020.9 17.7
2016-Sep-23 03:00N 52°18' E 003°54'1212.0 270 / 151021.0 5.4 1.018.2
2016-Sep-23 02:00N 52°06' E 003°54'10 9.5 250 / 131021.2 18.2
2016-Sep-23 01:00N 52°00' E 004°06'10 0.5 280 / 71021.1 18.0
2016-Sep-22 04:00N 51°54' E 004°18'10 9.5 170 / 91019.6 14.9
2016-Sep-22 03:00N 52°00' E 004°06'2311.5 190 / 121019.6 16.2
2016-Sep-22 01:00N 51°54' E 003°30'2713.3 180 / 151019.5 18.4
2016-Sep-21 23:00N 51°48' E 002°48'1312.7 160 / 141019.6 18.9
2016-Sep-21 22:00N 51°42' E 002°30'1414.1 130 / 131019.6 18.5
2016-Sep-21 21:00N 51°30' E 002°18'10 9.6 130 / 161019.710.8 0.518.4
2016-Sep-21 20:00N 51°24' E 002°06'2311.7 120 / 131019.6 18.7
2016-Sep-21 18:00N 51°06' E 001°42'1716.5 230 / 41018.6 5.4 18.2
2016-Sep-21 17:00N 50°54' E 001°24'1312.6 170 / 51018.2 19.2
2016-Sep-21 16:00N 50°42' E 001°18'1312.9 180 / 71017.7 19.2
2016-Sep-21 15:00N 50°36' E 001°00'16513.7 140 / 111017.6 5.4 18.7
2016-Sep-21 03:00N 49°48' W 003°06'1313.1 170 / 71018.1 5.4 1.016.4
2016-Sep-21 02:00N 49°42' W 003°24'1313.1 150 / 61018.4 16.4
2016-Sep-21 01:00N 49°36' W 003°42'   130 / 31018.5 15.9
Track history (hours):
 
Tides and Currents Weather Stations Pressure Air Temp Water Temp Dewpoint Dewpoint Depression Visibility Wind Speed Wind Dir Waves Ship Positions

Callsign BATFR13 (name unknown)

Last reported at 2016-Oct-01 00:00 UTC. Time now 2016-Oct-01 01:31 UTC.
Position N 43°42' W 024°42'.

Wind from 330 at 14 knots

Waves 2.0 meters (7 feet), 5 second period

Barometer 1021.3 mb
Air temperature 16.4 ° C
Visibility: greater than 10.8 NM

Date/timePositionNaut miles runAvg speedWind from/ knotsBaromVisibWave heightAir tempDewpointWater temp
2016-Oct-01 00:00N 43°42' W 024°42'1414.3 330 / 141021.310.8 2.016.4
2016-Sep-30 23:00N 43°48' W 024°24'1818.3 340 / 131021.8 16.4
2016-Sep-30 22:00N 43°54' W 024°00'1818.3 330 / 181021.9 16.4
2016-Sep-30 21:00N 44°00' W 023°36'1818.3 330 / 201021.710.8 0.516.4
2016-Sep-30 20:00N 44°06' W 023°12'1818.2 320 / 211021.8 16.4
2016-Sep-30 19:00N 44°12' W 022°48'1414.2 320 / 261021.3 16.5
2016-Sep-30 18:00N 44°18' W 022°30'2120.9 320 / 231021.1 5.4 3.016.2
2016-Sep-30 17:00N 44°30' W 022°06'1414.2 1020.7 15.7
2016-Sep-30 16:00N 44°36' W 021°48'1818.1 1020.5 16.0
2016-Sep-30 15:00N 44°42' W 021°24'1818.1 1020.210.8 2.016.9
2016-Sep-30 14:00N 44°48' W 021°00'1414.1 1021.0 15.0
2016-Sep-30 13:00N 44°54' W 020°42'1818.0 1020.8 16.4
2016-Sep-30 12:00N 45°00' W 020°18'1818.0 1020.7 16.2
2016-Sep-30 11:00N 45°06' W 019°54'1818.0 1021.1 14.7
2016-Sep-30 10:00N 45°12' W 019°30'1717.4 1021.4 15.9
2016-Sep-30 09:00N 45°24' W 019°12'1817.9 1021.210.8 1.515.9
2016-Sep-30 08:00N 45°30' W 018°48'1817.8 1020.8 15.9
2016-Sep-30 07:00N 45°36' W 018°24'1817.8 1020.5 15.9
2016-Sep-30 06:00N 45°42' W 018°00'1413.9 320 / 231020.4 14.9
2016-Sep-30 05:00N 45°48' W 017°42'1817.8 320 / 211020.3 15.5
2016-Sep-30 04:00N 45°54' W 017°18'1817.7 320 / 231020.5 15.0
2016-Sep-30 03:00N 46°00' W 016°54'1817.7 310 / 251020.110.8 2.014.0
2016-Sep-30 02:00N 46°06' W 016°30'2020.5 320 / 231020.8 15.4
2016-Sep-30 01:00N 46°18' W 016°06'1817.6 320 / 251020.8 15.5
2016-Sep-30 00:00N 46°24' W 015°42'1817.6 320 / 231021.210.8 2.015.7
2016-Sep-29 23:00N 46°30' W 015°18'1817.6 320 / 211021.3 15.7
2016-Sep-29 22:00N 46°36' W 014°54'1413.7 320 / 241021.1 16.0
2016-Sep-29 21:00N 46°42' W 014°36'1817.5 320 / 221020.9 16.2
2016-Sep-29 20:00N 46°48' W 014°12'2020.3 320 / 231020.9 15.4
2016-Sep-29 19:00N 47°00' W 013°48'1717.4 300 / 191020.7 16.0
2016-Sep-29 18:00N 47°06' W 013°24'3517.4 300 / 131021.3 5.4 2.015.2
2016-Sep-29 16:00N 47°18' W 012°36'1717.3 290 / 121021.5 16.7
2016-Sep-29 15:00N 47°24' W 012°12'1717.3 310 / 151021.8 5.4 2.016.7
2016-Sep-29 14:00N 47°30' W 011°48'1717.3 320 / 191022.3 16.7
2016-Sep-29 13:00N 47°36' W 011°24'2020.1 310 / 201022.5 16.9
2016-Sep-29 12:00N 47°48' W 011°00'1717.2 320 / 201022.310.8 3.016.7
2016-Sep-29 11:00N 47°54' W 010°36'1717.2 320 / 191022.7 16.7
2016-Sep-29 10:00N 48°00' W 010°12'1717.1 320 / 221022.8 16.9
2016-Sep-29 09:00N 48°06' W 009°48'1717.1 320 / 221022.4 16.9
2016-Sep-29 08:00N 48°12' W 009°24'3718.3 320 / 211022.0 16.4
2016-Sep-29 06:00N 48°30' W 008°36'1717.0 320 / 201020.9 5.4 2.016.0
2016-Sep-29 05:00N 48°36' W 008°12'3416.9 320 / 231020.1 15.4
2016-Sep-29 03:00N 48°48' W 007°24'1313.3 250 / 201020.2 5.4 2.016.9
2016-Sep-29 02:00N 48°54' W 007°06'3416.8 270 / 211021.2 16.9
2016-Sep-29 00:00N 49°06' W 006°18'1313.2 250 / 171022.510.8 2.016.9
2016-Sep-28 23:00N 49°12' W 006°00'1313.2 240 / 181023.2 16.9
2016-Sep-28 22:00N 49°18' W 005°42'1313.2 240 / 181023.8 16.7
2016-Sep-28 21:00N 49°24' W 005°24'2814.0 240 / 171024.4 16.4
2016-Sep-28 19:00N 49°30' W 004°42'1313.1 230 / 161024.9 15.5
2016-Sep-28 18:00N 49°36' W 004°24'1313.1 240 / 171025.2 2.2 2.015.5
2016-Sep-28 17:00N 49°42' W 004°06'1313.1 240 / 181025.6 15.7
2016-Sep-28 16:00N 49°48' W 003°48'1211.6 260 / 171026.4 15.9
2016-Sep-28 15:00N 49°48' W 003°30'1313.1 260 / 201026.7 16.2
2016-Sep-28 14:00N 49°54' W 003°12'1716.6 270 / 211027.2 16.5
2016-Sep-28 13:00N 50°00' W 002°48'1515.4 270 / 201027.8 16.4
2016-Sep-28 12:00N 50°00' W 002°24'1716.5 260 / 171027.910.8 2.016.4
2016-Sep-28 11:00N 50°06' W 002°00'1716.5 260 / 171027.4 16.4
2016-Sep-28 10:00N 50°00' W 001°36'1716.6 250 / 161027.8 16.7
2016-Sep-28 09:00N 49°54' W 001°12'1313.1 280 / 161027.8 16.5
2016-Sep-28 08:00N 49°48' W 000°54'10 9.8 270 / 161027.7 16.2
2016-Sep-28 07:00N 49°42' W 000°42'1313.1 270 / 141027.5 16.0
2016-Sep-28 06:00N 49°36' W 000°24'1716.7 270 / 121027.5 5.4 2.015.9
2016-Sep-28 05:00N 49°30' E 000°00'8 0.5 270 / 151027.8 16.0
2016-Sep-27 13:00N 49°30' E 000°12'17 8.3 220 / 91025.3 20.4
2016-Sep-27 11:00N 49°36' W 000°12'1312.6 230 / 211024.7 18.4
2016-Sep-27 10:00N 49°48' W 000°06'1716.7 210 / 201023.9 17.9
2016-Sep-27 09:00N 50°00' E 000°12'1414.3 220 / 191023.7 18.0
2016-Sep-27 08:00N 50°12' E 000°24'1414.2 230 / 201023.4 17.5
2016-Sep-27 07:00N 50°24' E 000°36'2814.2 220 / 161023.4 17.0
2016-Sep-27 05:00N 50°48' E 001°00'4515.1 210 / 151023.2 16.7
2016-Sep-27 02:00N 51°18' E 001°54'3812.7 210 / 151023.7 16.4
2016-Sep-26 23:00N 51°24' E 002°54'1918.7 200 / 71024.0 15.9
2016-Sep-26 22:00N 51°24' E 003°24'1111.2 200 / 41024.2 14.9
2016-Sep-26 21:00N 51°24' E 003°42'1111.2 160 / 71024.7 15.9
2016-Sep-26 20:00N 51°24' E 004°00'7 7.5 210 / 51024.3 15.7
2016-Sep-26 19:00N 51°24' E 004°12'7 0.5 210 / 31024.7 16.0
2016-Sep-26 06:00N 51°18' E 004°18'1312.7 230 / 111023.8 10.7
2016-Sep-26 05:00N 51°24' E 004°00'1111.2 220 / 101023.3 13.2
2016-Sep-26 04:00N 51°24' E 003°42'2713.4 230 / 141022.7 12.9
2016-Sep-26 02:00N 51°30' E 003°00'1414.1 300 / 161022.6 16.9
2016-Sep-26 01:00N 51°42' E 003°12'1312.6 300 / 141022.3 17.4
2016-Sep-26 00:00N 51°54' E 003°18'1312.6 290 / 151021.5 17.7
2016-Sep-25 23:00N 52°06' E 003°24'1212.0 290 / 171020.9 17.9
2016-Sep-25 22:00N 52°18' E 003°24'1312.5 280 / 171020.0 18.0
2016-Sep-25 21:00N 52°30' E 003°30'1312.5 280 / 201019.4 18.4
2016-Sep-25 20:00N 52°42' E 003°36'1616.2 280 / 221018.5 18.7
2016-Sep-25 19:00N 52°54' E 003°54'1212.4 280 / 201018.0 18.2
2016-Sep-25 18:00N 53°00' E 004°12'1414.0 280 / 211017.1 18.2
2016-Sep-25 17:00N 53°12' E 004°24'1414.0 280 / 271016.0 17.7
2016-Sep-25 16:00N 53°24' E 004°36'1918.6 290 / 271014.9 18.0
2016-Sep-25 15:00N 53°36' E 005°00'1918.8 240 / 221013.6 5.4 1.018.9
2016-Sep-25 14:00N 53°42' E 005°30'1918.7 240 / 201013.5 20.4
2016-Sep-25 13:00N 53°48' E 006°00'1918.7 160 / 121013.2 20.9
2016-Sep-25 12:00N 53°54' E 006°30'4321.4 150 / 161014.2 19.4
2016-Sep-25 10:00N 54°00' E 007°42'1817.6 150 / 171016.5 17.4
2016-Sep-25 09:00N 54°00' E 008°12'1918.6 140 / 171017.6 17.4
2016-Sep-25 08:00N 53°54' E 008°42'1414.1 140 / 121018.5 15.7
2016-Sep-25 07:00N 53°54' E 009°06'2311.5 120 / 111018.9 13.4
2016-Sep-25 05:00N 53°36' E 009°30'1212.3 140 / 81020.3 14.7
2016-Sep-25 04:00N 53°30' E 009°48'12 0.5 110 / 81021.0 13.5
2016-Sep-24 02:00N 53°36' E 009°30'1413.9 260 / 111024.7 11.9
2016-Sep-24 01:00N 53°48' E 009°18'2211.0 230 / 131024.1 12.4
2016-Sep-23 23:00N 53°54' E 008°42'1515.3 270 / 111024.3 15.9
2016-Sep-23 22:00N 54°00' E 008°18'1110.6 280 / 91024.5 16.4
2016-Sep-23 21:00N 54°00' E 008°00'9 9.3 280 / 91024.6 16.5
2016-Sep-23 20:00N 53°54' E 007°48'1110.6 280 / 111024.7 16.4
2016-Sep-23 19:00N 53°54' E 007°30'1414.1 280 / 101024.5 16.4
2016-Sep-23 18:00N 53°54' E 007°06'2211.0 270 / 101024.0 5.4 1.016.4
2016-Sep-23 16:00N 53°48' E 006°30'1212.2 280 / 131024.2 17.4
2016-Sep-23 15:00N 53°42' E 006°12'1110.7 290 / 131024.1 5.4 1.017.2
2016-Sep-23 14:00N 53°42' E 005°54'1212.2 280 / 131023.9 16.9
2016-Sep-23 13:00N 53°36' E 005°36'1212.3 290 / 131024.1 16.9
2016-Sep-23 12:00N 53°30' E 005°18'1110.7 290 / 131023.810.8 16.7
2016-Sep-23 11:00N 53°30' E 005°00'1212.3 300 / 121023.7 16.7
2016-Sep-23 10:00N 53°24' E 004°42'1312.5 320 / 111023.4 16.4
2016-Sep-23 09:00N 53°12' E 004°36'9 9.4 350 / 41023.2 18.0
2016-Sep-23 08:00N 53°06' E 004°24'2110.5 250 / 111022.8 17.7
2016-Sep-23 06:00N 52°48' E 004°06'1312.5 260 / 151022.1 5.4 1.017.4
2016-Sep-23 05:00N 52°36' E 004°00'1312.5 280 / 131021.1 17.5
2016-Sep-23 04:00N 52°24' E 003°54'6 6.0 300 / 121020.9 17.7
2016-Sep-23 03:00N 52°18' E 003°54'1212.0 270 / 151021.0 5.4 1.018.2
2016-Sep-23 02:00N 52°06' E 003°54'10 9.5 250 / 131021.2 18.2
2016-Sep-23 01:00N 52°00' E 004°06'10 0.5 280 / 71021.1 18.0
2016-Sep-22 04:00N 51°54' E 004°18'10 9.5 170 / 91019.6 14.9
2016-Sep-22 03:00N 52°00' E 004°06'2311.5 190 / 121019.6 16.2
2016-Sep-22 01:00N 51°54' E 003°30'2713.3 180 / 151019.5 18.4
2016-Sep-21 23:00N 51°48' E 002°48'1312.7 160 / 141019.6 18.9
2016-Sep-21 22:00N 51°42' E 002°30'1414.1 130 / 131019.6 18.5
2016-Sep-21 21:00N 51°30' E 002°18'10 9.6 130 / 161019.710.8 0.518.4
2016-Sep-21 20:00N 51°24' E 002°06'2311.7 120 / 131019.6 18.7
2016-Sep-21 18:00N 51°06' E 001°42'1716.5 230 / 41018.6 5.4 18.2
2016-Sep-21 17:00N 50°54' E 001°24'1312.6 170 / 51018.2 19.2
2016-Sep-21 16:00N 50°42' E 001°18'1312.9 180 / 71017.7 19.2
2016-Sep-21 15:00N 50°36' E 001°00'16513.7 140 / 111017.6 5.4 18.7
2016-Sep-21 03:00N 49°48' W 003°06'1313.1 170 / 71018.1 5.4 1.016.4
2016-Sep-21 02:00N 49°42' W 003°24'1313.1 150 / 61018.4 16.4
2016-Sep-21 01:00N 49°36' W 003°42'   130 / 31018.5 15.9

Dump ship's entire track history